TUN weather

Tunis Carthage International Airport
Tunis, Tunis Governorate, Tunisia

Public forecast

Using degrees Celsius for public forecast. Weather courtesy of forecast.io.

METAR (pilot weather report)

Retrieved 2018/07/23 06:30 UTC (29 minutes ago):

DTTA 230630Z 31011KT CAVOK 27/19 Q1013 NOSIG

TAF (pilot weather forecast)

Retrieved 2018/07/23 06:26 UTC (33 minutes ago):

TAF DTTA 230526Z 2306/2406 30015KT 9999 FEW025 TEMPO 2306/2308 3000 -RA SCT030TCU